createdAt,value
2019-05-05T00:00:45.491Z,4.80
2019-05-05T00:01:45.442Z,4.90
2019-05-05T00:02:45.417Z,4.70
2019-05-05T00:03:45.381Z,4.90
2019-05-05T00:04:45.586Z,5.10
2019-05-05T00:05:45.110Z,5.00
2019-05-05T00:06:45.077Z,5.20
2019-05-05T00:07:45.047Z,4.90
2019-05-05T00:08:45.676Z,5.50
2019-05-05T00:09:45.075Z,5.00
2019-05-05T00:10:45.287Z,5.30
2019-05-05T00:11:44.918Z,5.00
2019-05-05T00:12:44.971Z,5.30
2019-05-05T00:13:44.851Z,5.00
2019-05-05T00:14:44.824Z,5.90
2019-05-05T00:15:45.025Z,5.30
2019-05-05T00:16:44.752Z,5.10
2019-05-05T00:17:45.056Z,6.10
2019-05-05T00:18:44.857Z,5.60
2019-05-05T00:19:45.421Z,6.00
2019-05-05T00:20:44.730Z,5.90
2019-05-05T00:21:44.689Z,6.10
2019-05-05T00:22:45.499Z,5.50
2019-05-05T00:23:45.161Z,6.10
2019-05-05T00:24:44.532Z,6.20
2019-05-05T00:25:44.803Z,6.00
2019-05-05T00:26:46.035Z,5.90
2019-05-05T00:27:45.272Z,5.90
2019-05-05T00:28:44.895Z,6.30
2019-05-05T00:29:45.305Z,6.20
2019-05-05T00:30:44.902Z,5.70
2019-05-05T00:31:45.374Z,6.30
2019-05-05T00:32:44.342Z,6.50
2019-05-05T00:33:44.837Z,6.60
2019-05-05T00:34:44.533Z,5.80
2019-05-05T00:35:45.136Z,6.10
2019-05-05T00:36:44.668Z,6.00
2019-05-05T00:37:45.093Z,6.20
2019-05-05T00:38:44.513Z,6.00
2019-05-05T00:39:45.180Z,6.00
2019-05-05T00:40:44.387Z,5.50
2019-05-05T00:41:44.907Z,5.40
2019-05-05T00:42:45.620Z,5.30
2019-05-05T00:43:45.100Z,4.90
2019-05-05T00:44:44.688Z,4.90
2019-05-05T00:45:45.094Z,5.40
2019-05-05T00:46:44.695Z,5.70
2019-05-05T00:47:45.068Z,5.80
2019-05-05T00:48:44.444Z,5.70
2019-05-05T00:49:47.162Z,5.40
2019-05-05T00:50:44.967Z,5.70
2019-05-05T00:51:44.330Z,6.00
2019-05-05T00:52:44.574Z,5.60
2019-05-05T00:53:44.898Z,5.30
2019-05-05T00:54:45.022Z,5.90
2019-05-05T00:55:44.295Z,5.70
2019-05-05T00:56:45.061Z,6.20
2019-05-05T00:57:45.285Z,5.70
2019-05-05T00:58:44.607Z,5.80
2019-05-05T00:59:45.251Z,6.20
2019-05-05T01:00:44.405Z,6.30
2019-05-05T01:01:44.833Z,6.20
2019-05-05T01:02:44.920Z,6.00
2019-05-05T01:03:44.178Z,6.50
2019-05-05T01:04:44.526Z,5.70
2019-05-05T01:05:44.800Z,5.70
2019-05-05T01:06:44.984Z,6.40
2019-05-05T01:07:44.415Z,5.70
2019-05-05T01:08:44.508Z,6.40
2019-05-05T01:09:44.992Z,6.60
2019-05-05T01:10:44.305Z,6.10
2019-05-05T01:11:44.605Z,5.90
2019-05-05T01:12:44.920Z,6.20
2019-05-05T01:13:42.895Z,5.40
2019-05-05T01:14:44.784Z,6.40
2019-05-05T01:15:44.434Z,6.20
2019-05-05T01:16:42.802Z,6.30
2019-05-05T01:17:44.955Z,6.50
2019-05-05T01:18:44.898Z,6.90
2019-05-05T01:19:42.698Z,6.80
2019-05-05T01:20:44.727Z,5.70
2019-05-05T01:21:42.633Z,6.30
2019-05-05T01:22:44.696Z,6.70
2019-05-05T01:23:42.574Z,6.00
2019-05-05T01:24:42.535Z,6.30
2019-05-05T01:25:42.504Z,6.10
2019-05-05T01:26:44.476Z,6.80
2019-05-05T01:27:42.438Z,6.70
2019-05-05T01:28:44.559Z,6.70
2019-05-05T01:29:42.372Z,6.60
2019-05-05T01:30:44.409Z,5.90
2019-05-05T01:31:42.308Z,6.40
2019-05-05T01:32:44.486Z,6.20
2019-05-05T01:33:42.245Z,6.60
2019-05-05T01:34:44.240Z,6.60
2019-05-05T01:35:42.178Z,6.60
2019-05-05T01:36:42.145Z,6.70
2019-05-05T01:37:44.194Z,5.90
2019-05-05T01:38:42.080Z,7.10
2019-05-05T01:39:42.057Z,6.90
2019-05-05T01:40:42.012Z,7.10
2019-05-05T01:41:41.984Z,6.60
2019-05-05T01:42:41.949Z,7.20
2019-05-05T01:43:41.915Z,7.20
2019-05-05T01:44:41.882Z,7.20
2019-05-05T01:45:42.058Z,6.60
2019-05-05T01:46:41.820Z,7.10
2019-05-05T01:47:41.783Z,7.20
2019-05-05T01:48:41.752Z,6.70
2019-05-05T01:49:41.723Z,7.00
2019-05-05T01:50:41.686Z,7.20
2019-05-05T01:51:41.654Z,7.80
2019-05-05T01:52:41.620Z,7.50
2019-05-05T01:53:41.590Z,7.40
2019-05-05T01:54:41.557Z,8.10
2019-05-05T01:55:41.529Z,7.90
2019-05-05T01:56:41.493Z,8.40
2019-05-05T01:57:41.458Z,8.20
2019-05-05T01:58:41.430Z,8.90
2019-05-05T01:59:41.393Z,9.00
2019-05-05T02:00:41.361Z,8.80
2019-05-05T02:01:41.359Z,8.50
2019-05-05T02:02:41.293Z,9.10
2019-05-05T02:03:41.264Z,8.60
2019-05-05T02:04:41.231Z,9.70
2019-05-05T02:05:41.196Z,8.80
2019-05-05T02:06:41.174Z,8.90
2019-05-05T02:07:41.132Z,9.50
2019-05-05T02:08:41.098Z,8.90
2019-05-05T02:09:41.067Z,8.50
2019-05-05T02:10:41.033Z,9.30
2019-05-05T02:11:40.999Z,9.10
2019-05-05T02:12:40.977Z,9.00
2019-05-05T02:13:40.938Z,9.70
2019-05-05T02:14:40.903Z,9.10
2019-05-05T02:15:40.873Z,8.90
2019-05-05T02:16:40.836Z,8.90
2019-05-05T02:17:40.804Z,8.40
2019-05-05T02:18:40.770Z,8.40
2019-05-05T02:19:40.742Z,9.20
2019-05-05T02:20:40.706Z,9.10
2019-05-05T02:21:40.673Z,9.10
2019-05-05T02:22:40.641Z,8.50
2019-05-05T02:23:40.612Z,8.70
2019-05-05T02:24:40.575Z,8.60
2019-05-05T02:25:40.542Z,9.00
2019-05-05T02:26:40.711Z,8.20
2019-05-05T02:27:40.476Z,8.70
2019-05-05T02:28:40.444Z,8.30
2019-05-05T02:29:40.410Z,8.70
2019-05-05T02:30:40.580Z,8.90
2019-05-05T02:31:40.346Z,8.40
2019-05-05T02:32:40.314Z,8.80
2019-05-05T02:33:40.281Z,8.30
2019-05-05T02:34:40.251Z,8.40
2019-05-05T02:35:40.212Z,9.20
2019-05-05T02:36:40.184Z,8.40
2019-05-05T02:37:40.147Z,8.50
2019-05-05T02:38:40.115Z,8.40
2019-05-05T02:39:46.096Z,8.50
2019-05-05T02:40:40.049Z,8.80
2019-05-05T02:41:40.016Z,8.80
2019-05-05T02:42:39.984Z,8.80
2019-05-05T02:43:39.951Z,9.20
2019-05-05T02:44:39.920Z,9.30
2019-05-05T02:45:39.885Z,9.60
2019-05-05T02:46:39.853Z,9.90
2019-05-05T02:47:39.818Z,9.90
2019-05-05T02:48:39.786Z,10.80
2019-05-05T02:49:39.952Z,9.70
2019-05-05T02:50:54.920Z,10.70
2019-05-05T02:51:39.686Z,10.20
2019-05-05T02:52:39.651Z,9.70
2019-05-05T02:53:39.619Z,11.30
2019-05-05T02:54:39.589Z,9.90
2019-05-05T02:55:39.551Z,9.20
2019-05-05T02:56:39.520Z,10.00
2019-05-05T02:57:39.485Z,9.00
2019-05-05T02:58:39.453Z,8.70
2019-05-05T02:59:39.423Z,8.40
2019-05-05T03:00:39.386Z,9.00
2019-05-05T03:01:39.354Z,9.40
2019-05-05T03:02:39.319Z,9.50
2019-05-05T03:03:39.288Z,9.00
2019-05-05T03:04:39.256Z,9.60
2019-05-05T03:05:39.228Z,9.00
2019-05-05T03:06:39.188Z,9.20
2019-05-05T03:07:39.157Z,9.10
2019-05-05T03:08:39.123Z,8.70
2019-05-05T03:09:39.089Z,8.70
2019-05-05T03:10:39.060Z,8.90
2019-05-05T03:11:39.021Z,8.70
2019-05-05T03:12:38.996Z,7.90
2019-05-05T03:13:38.955Z,8.10
2019-05-05T03:14:38.923Z,8.90
2019-05-05T03:15:38.892Z,8.10
2019-05-05T03:16:38.856Z,7.90
2019-05-05T03:17:38.826Z,7.40
2019-05-05T03:18:38.792Z,7.50
2019-05-05T03:19:38.757Z,6.90
2019-05-05T03:20:38.725Z,7.20
2019-05-05T03:21:38.690Z,7.60
2019-05-05T03:22:38.660Z,7.30
2019-05-05T03:23:38.625Z,7.50
2019-05-05T03:24:38.598Z,7.00
2019-05-05T03:25:38.559Z,6.70
2019-05-05T03:26:38.525Z,7.50
2019-05-05T03:27:38.492Z,7.50
2019-05-05T03:28:38.464Z,7.00
2019-05-05T03:29:38.426Z,6.90
2019-05-05T03:30:38.393Z,6.50
2019-05-05T03:31:38.364Z,6.80
2019-05-05T03:32:38.329Z,6.50
2019-05-05T03:33:38.295Z,6.50
2019-05-05T03:34:38.259Z,6.50
2019-05-05T03:35:38.227Z,6.50
2019-05-05T03:36:38.195Z,7.20
2019-05-05T03:37:38.160Z,7.10
2019-05-05T03:38:38.127Z,7.30
2019-05-05T03:39:38.093Z,6.50
2019-05-05T03:40:38.060Z,7.10
2019-05-05T03:41:38.032Z,6.80
2019-05-05T03:42:37.994Z,6.90
2019-05-05T03:43:37.961Z,7.20
2019-05-05T03:44:37.933Z,7.00
2019-05-05T03:45:37.897Z,7.00
2019-05-05T03:46:37.863Z,6.90
2019-05-05T03:47:37.830Z,6.90
2019-05-05T03:48:37.796Z,6.40
2019-05-05T03:49:37.762Z,6.30
2019-05-05T03:50:37.729Z,6.80
2019-05-05T03:51:37.698Z,5.90
2019-05-05T03:52:37.663Z,6.10
2019-05-05T03:53:37.631Z,6.70
2019-05-05T03:54:37.596Z,6.30
2019-05-05T03:55:37.563Z,6.10
2019-05-05T03:56:37.532Z,6.50
2019-05-05T03:57:37.499Z,6.70
2019-05-05T03:58:37.465Z,6.10
2019-05-05T03:59:37.433Z,6.30
2019-05-05T04:00:37.411Z,6.10
2019-05-05T04:01:37.367Z,6.40
2019-05-05T04:02:37.333Z,6.30
2019-05-05T04:03:37.299Z,6.10
2019-05-05T04:04:37.268Z,6.50
2019-05-05T04:05:37.284Z,5.90
2019-05-05T04:06:37.204Z,5.50
2019-05-05T04:07:37.171Z,6.40
2019-05-05T04:08:37.135Z,6.30
2019-05-05T04:09:37.104Z,6.20
2019-05-05T04:10:37.070Z,6.80
2019-05-05T04:11:37.037Z,6.00
2019-05-05T04:12:37.008Z,5.80
2019-05-05T04:13:36.975Z,5.90
2019-05-05T04:14:36.942Z,5.90
2019-05-05T04:15:36.910Z,5.70
2019-05-05T04:16:36.876Z,5.60
2019-05-05T04:17:36.845Z,6.10
2019-05-05T04:18:36.811Z,5.70
2019-05-05T04:19:36.780Z,5.90
2019-05-05T04:20:36.748Z,5.80
2019-05-05T04:21:36.980Z,5.70
2019-05-05T04:22:36.687Z,6.20
2019-05-05T04:23:36.653Z,5.60
2019-05-05T04:24:36.822Z,5.80
2019-05-05T04:25:36.590Z,5.90
2019-05-05T04:26:36.559Z,5.80
2019-05-05T04:27:36.525Z,6.10
2019-05-05T04:28:36.697Z,5.50
2019-05-05T04:29:36.463Z,5.70
2019-05-05T04:30:36.637Z,5.00
2019-05-05T04:31:36.403Z,5.70
2019-05-05T04:32:36.374Z,5.80
2019-05-05T04:33:36.339Z,5.30
2019-05-05T04:34:36.508Z,5.70
2019-05-05T04:35:36.275Z,5.60
2019-05-05T04:36:36.246Z,5.50
2019-05-05T04:37:36.214Z,5.40
2019-05-05T04:38:36.396Z,5.00
2019-05-05T04:39:36.355Z,5.70
2019-05-05T04:48:24.176Z,4.80
2019-05-05T04:49:23.496Z,4.90
2019-05-05T04:50:23.891Z,5.60
2019-05-05T04:51:24.369Z,5.20
2019-05-05T04:52:23.629Z,5.00
2019-05-05T04:53:24.118Z,4.70
2019-05-05T04:54:24.293Z,4.50
2019-05-05T04:55:24.331Z,5.40
2019-05-05T04:56:23.456Z,5.30
2019-05-05T04:57:24.033Z,5.50
2019-05-05T04:58:24.134Z,5.60
2019-05-05T04:59:23.542Z,5.30
2019-05-05T05:00:24.024Z,5.60
2019-05-05T05:01:23.733Z,5.50
2019-05-05T05:02:23.617Z,5.10
2019-05-05T05:03:23.865Z,5.60
2019-05-05T05:04:21.876Z,5.50
2019-05-05T05:05:21.852Z,5.10
2019-05-05T05:06:23.698Z,5.10
2019-05-05T05:07:24.059Z,4.90
2019-05-05T05:08:21.767Z,5.10
2019-05-05T05:09:23.621Z,5.30
2019-05-05T05:10:23.939Z,5.00
2019-05-05T05:11:21.673Z,4.70
2019-05-05T05:12:23.580Z,5.10
2019-05-05T05:13:21.614Z,5.10
2019-05-05T05:14:21.583Z,4.90
2019-05-05T05:15:23.374Z,5.60
2019-05-05T05:16:21.528Z,4.60
2019-05-05T05:17:21.498Z,4.90
2019-05-05T05:18:21.469Z,4.70
2019-05-05T05:19:21.442Z,4.80
2019-05-05T05:20:21.415Z,4.50
2019-05-05T05:21:21.387Z,5.00
2019-05-05T05:22:21.556Z,4.60
2019-05-05T05:23:21.326Z,5.00
2019-05-05T05:24:21.301Z,4.70
2019-05-05T05:25:21.272Z,4.70
2019-05-05T05:26:21.242Z,4.50
2019-05-05T05:27:21.213Z,4.70
2019-05-05T05:28:23.505Z,4.70
2019-05-05T05:29:21.358Z,5.50
2019-05-05T05:31:24.340Z,5.30
2019-05-05T05:32:21.072Z,5.10
2019-05-05T05:33:21.048Z,5.40
2019-05-05T05:34:21.421Z,5.10
2019-05-05T05:35:21.000Z,5.60
2019-05-05T05:36:21.163Z,4.90
2019-05-05T05:37:20.935Z,5.20
2019-05-05T06:05:11.878Z,5.00
2019-05-05T06:06:13.699Z,5.10
2019-05-05T07:55:59.916Z,2.90
2019-05-05T08:09:00.553Z,2.30
2019-05-05T08:10:04.594Z,2.60
2019-05-05T08:19:29.209Z,2.90
2019-05-05T08:20:28.984Z,2.70
2019-05-05T08:21:29.161Z,2.60
2019-05-05T08:23:27.995Z,2.70
2019-05-05T08:24:11.510Z,2.60
2019-05-05T08:25:11.486Z,2.40
2019-05-05T08:26:13.599Z,3.00
2019-05-05T08:27:11.240Z,2.60
2019-05-05T08:28:11.422Z,2.50
2019-05-05T08:29:11.198Z,2.60
2019-05-05T08:30:11.379Z,2.40
2019-05-05T08:31:11.156Z,2.60
2019-05-05T08:32:13.479Z,2.90
2019-05-05T08:33:11.110Z,2.70
2019-05-05T08:34:11.292Z,2.40
2019-05-05T08:35:11.271Z,2.50
2019-05-05T08:36:11.249Z,2.80
2019-05-05T08:47:04.745Z,2.80
2019-05-05T08:48:05.334Z,2.70
2019-05-05T08:49:47.098Z,2.70
2019-05-05T08:50:47.077Z,2.80
2019-05-05T08:51:47.058Z,3.30
2019-05-05T08:52:46.836Z,3.50
2019-05-05T08:53:48.372Z,3.60
2019-05-05T08:54:46.795Z,3.40
2019-05-05T08:55:46.774Z,3.10
2019-05-05T08:56:46.757Z,3.30
2019-05-05T08:57:46.736Z,3.20
2019-05-05T08:58:49.713Z,3.80
2019-05-05T08:59:46.692Z,4.00
2019-05-05T09:00:46.670Z,3.40
2019-05-05T09:02:29.247Z,3.60
2019-05-05T09:03:29.023Z,3.50
2019-05-05T09:04:29.004Z,4.00
2019-05-05T09:05:29.182Z,4.70
2019-05-05T09:06:29.159Z,4.40
2019-05-05T09:09:36.364Z,5.20
2019-05-05T09:14:50.646Z,5.20
2019-05-05T09:30:16.015Z,4.30
2019-05-05T09:31:15.779Z,4.30
2019-05-05T09:32:15.753Z,5.70
2019-05-05T09:33:18.263Z,5.30
2019-05-05T09:34:15.697Z,5.60
2019-05-05T09:35:15.672Z,5.40
2019-05-05T09:36:15.646Z,4.50
2019-05-05T09:37:15.619Z,4.20
2019-05-05T09:38:15.598Z,3.70
2019-05-05T09:39:15.572Z,4.50
2019-05-05T09:40:15.543Z,5.10
2019-05-05T09:41:15.517Z,5.00
2019-05-05T09:42:15.490Z,5.30
2019-05-05T09:43:15.466Z,5.40
2019-05-05T09:44:15.440Z,5.90
2019-05-05T09:45:15.420Z,5.40
2019-05-05T09:46:15.390Z,5.30
2019-05-05T09:47:15.365Z,5.20
2019-05-05T09:48:15.341Z,4.90
2019-05-05T09:49:15.314Z,4.60
2019-05-05T09:50:15.287Z,4.70
2019-05-05T09:51:15.266Z,4.80
2019-05-05T09:52:15.239Z,5.10
2019-05-05T09:54:44.039Z,4.40
2019-05-05T09:59:13.540Z,5.00
2019-05-05T10:00:54.826Z,4.30
2019-05-05T10:01:54.478Z,4.40
2019-05-05T10:02:54.529Z,4.40
2019-05-05T10:04:37.637Z,4.80
2019-05-05T10:05:36.607Z,4.80
2019-05-05T10:06:36.583Z,4.70
2019-05-05T10:07:36.764Z,4.80
2019-05-05T10:08:36.540Z,4.40
2019-05-05T10:09:36.523Z,4.70
2019-05-05T10:10:36.501Z,4.90
2019-05-05T10:12:19.085Z,4.70
2019-05-05T10:13:18.852Z,4.40
2019-05-05T10:14:18.832Z,4.90
2019-05-05T10:15:18.815Z,5.00
2019-05-05T10:16:18.791Z,5.10
2019-05-05T10:17:18.770Z,5.30
2019-05-05T10:18:18.753Z,5.00
2019-05-05T10:19:18.728Z,5.30
2019-05-05T10:20:18.706Z,5.80
2019-05-05T10:21:18.693Z,5.50
2019-05-05T10:22:18.665Z,6.20
2019-05-05T10:23:18.645Z,6.00
2019-05-05T10:24:27.908Z,6.30
2019-05-05T10:25:18.600Z,5.80
2019-05-05T10:26:18.786Z,6.30
2019-05-05T10:27:18.760Z,5.80
2019-05-05T10:28:18.538Z,5.60
2019-05-05T10:29:18.513Z,5.10
2019-05-05T10:31:43.769Z,4.50
2019-05-05T10:32:43.878Z,5.40
2019-05-05T10:33:43.254Z,6.40
2019-05-05T10:34:44.026Z,5.30
2019-05-05T10:35:43.854Z,5.40
2019-05-05T10:49:26.385Z,4.60
2019-05-05T10:50:26.157Z,5.30
2019-05-05T10:51:26.128Z,4.40
2019-05-05T10:52:26.299Z,4.30
2019-05-05T10:53:26.070Z,3.80
2019-05-05T10:54:40.170Z,3.90
2019-05-05T10:55:26.019Z,4.10
2019-05-05T10:56:25.993Z,3.70
2019-05-05T10:57:25.968Z,3.90
2019-05-05T10:58:25.944Z,4.60
2019-05-05T10:59:25.914Z,4.60
2019-05-05T11:00:25.890Z,4.90
2019-05-05T11:01:25.862Z,4.40
2019-05-05T11:02:25.838Z,4.40
2019-05-05T11:03:25.816Z,5.20
2019-05-05T11:04:25.786Z,5.00
2019-05-05T11:05:25.766Z,4.90
2019-05-05T11:06:25.759Z,4.60
2019-05-05T11:11:40.258Z,5.50
2019-05-05T11:34:34.331Z,5.80
2019-05-05T11:42:38.240Z,5.40
2019-05-05T11:43:38.018Z,4.90
2019-05-05T11:44:37.997Z,4.80
2019-05-05T11:45:38.177Z,4.90
2019-05-05T11:46:37.955Z,5.10
2019-05-05T11:47:37.935Z,5.00
2019-05-05T11:48:38.418Z,5.50
2019-05-05T11:49:38.094Z,5.50
2019-05-05T11:50:38.087Z,5.30
2019-05-05T11:51:38.054Z,5.10
2019-05-05T11:53:20.435Z,4.20
2019-05-05T11:54:21.416Z,4.40
2019-05-05T11:56:04.152Z,5.90
2019-05-05T11:57:04.392Z,5.90
2019-05-05T11:58:03.564Z,5.30
2019-05-05T11:59:03.926Z,5.00
2019-05-05T12:00:03.803Z,5.60
2019-05-05T12:01:03.778Z,5.10
2019-05-05T12:02:03.772Z,5.60
2019-05-05T12:03:03.801Z,5.50
2019-05-05T12:04:04.087Z,4.90
2019-05-05T12:05:04.473Z,5.00
2019-05-05T12:18:45.586Z,4.50
2019-05-05T12:19:48.399Z,4.70
2019-05-05T12:20:45.340Z,5.30
2019-05-05T12:26:04.570Z,5.10
2019-05-05T12:26:59.649Z,4.70
2019-05-05T12:27:59.832Z,5.30
2019-05-05T12:29:44.086Z,4.30
2019-05-05T12:33:33.531Z,4.40
2019-05-05T12:34:31.539Z,4.60
2019-05-05T12:35:31.521Z,4.80
2019-05-05T12:36:31.501Z,5.30
2019-05-05T12:37:31.479Z,4.50
2019-05-05T12:38:31.463Z,4.80
2019-05-05T12:39:33.483Z,4.60
2019-05-05T12:40:33.640Z,5.10
2019-05-05T12:41:31.602Z,4.70
2019-05-05T13:01:11.391Z,4.90
2019-05-05T13:02:11.150Z,5.50
2019-05-05T13:03:11.126Z,4.70
2019-05-05T13:04:11.103Z,4.70
2019-05-05T13:05:11.076Z,4.80
2019-05-05T13:06:11.054Z,5.20
2019-05-05T13:07:11.028Z,5.30
2019-05-05T13:08:11.002Z,5.70
2019-05-05T13:09:10.979Z,5.40
2019-05-05T13:10:10.958Z,5.60
2019-05-05T13:11:10.931Z,5.90
2019-05-05T13:12:10.907Z,5.60
2019-05-05T13:13:10.882Z,5.70
2019-05-05T13:14:10.858Z,6.10
2019-05-05T13:15:10.836Z,5.60
2019-05-05T13:16:10.811Z,5.80
2019-05-05T13:17:10.797Z,5.80
2019-05-05T13:18:10.772Z,4.80
2019-05-05T13:19:10.757Z,5.90
2019-05-05T13:20:10.719Z,5.00
2019-05-05T13:21:10.695Z,4.80
2019-05-05T13:29:57.194Z,4.80
2019-05-05T13:30:56.968Z,5.20
2019-05-05T13:31:56.941Z,4.60
2019-05-05T15:06:16.256Z,3.90
2019-05-05T15:07:14.457Z,4.30
2019-05-05T15:08:13.608Z,4.60
2019-05-05T15:09:13.918Z,4.40
2019-05-05T15:10:14.472Z,4.70
2019-05-05T15:11:14.205Z,5.20
2019-05-05T15:12:14.355Z,4.40
2019-05-05T16:40:49.074Z,4.70
2019-05-05T16:42:31.434Z,4.80
2019-05-05T16:43:33.630Z,5.10
2019-05-05T16:46:38.548Z,4.70
2019-05-05T16:47:38.517Z,4.80
2019-05-05T16:48:38.894Z,4.60
2019-05-05T16:49:38.266Z,4.20
2019-05-05T16:50:38.434Z,4.50
2019-05-05T16:51:38.411Z,3.90
2019-05-05T16:52:38.183Z,4.30
2019-05-05T16:53:38.149Z,4.00
2019-05-05T16:54:38.122Z,3.80
2019-05-05T16:55:38.108Z,4.20
2019-05-05T16:56:38.067Z,4.50
2019-05-05T16:57:38.245Z,4.20
2019-05-05T16:58:38.013Z,4.00
2019-05-05T16:59:37.984Z,3.90
2019-05-05T17:00:37.958Z,3.90
2019-05-05T17:01:37.927Z,4.40
2019-05-05T17:02:38.106Z,4.20
2019-05-05T17:03:37.874Z,3.70
2019-05-05T17:04:37.850Z,4.10
2019-05-05T17:05:37.818Z,4.60
2019-05-05T17:06:37.794Z,4.00
2019-05-05T17:07:37.761Z,4.70
2019-05-05T17:08:37.735Z,4.50
2019-05-05T17:09:39.124Z,4.30
2019-05-05T17:15:35.474Z,4.40
2019-05-05T17:16:35.340Z,4.30
2019-05-05T17:17:34.340Z,4.50
2019-05-05T17:18:36.124Z,4.80
2019-05-05T17:19:34.494Z,4.40
2019-05-05T17:20:34.254Z,4.60
2019-05-05T17:21:34.279Z,4.40
2019-05-05T17:22:34.197Z,4.40
2019-05-05T17:23:34.272Z,4.70
2019-05-05T17:24:34.505Z,4.40
2019-05-05T17:25:34.347Z,4.10
2019-05-05T17:26:35.479Z,4.40
2019-05-05T17:27:47.063Z,4.10
2019-05-05T17:28:34.028Z,4.20
2019-05-05T17:29:34.492Z,4.40
2019-05-05T17:30:34.216Z,4.90
2019-05-05T17:31:34.106Z,4.40
2019-05-05T17:32:34.450Z,4.80
2019-05-05T17:33:33.974Z,4.70
2019-05-05T17:34:34.092Z,5.00
2019-05-05T17:35:33.837Z,5.10
2019-05-05T17:36:33.801Z,4.20
2019-05-05T17:37:33.776Z,5.30
2019-05-05T17:38:34.278Z,5.00
2019-05-05T17:39:34.503Z,4.90
2019-05-05T17:40:33.731Z,5.10
2019-05-05T17:41:34.126Z,4.50
2019-05-05T17:42:34.794Z,4.70
2019-05-05T17:43:34.112Z,5.10
2019-05-05T17:44:33.712Z,5.00
2019-05-05T17:45:34.409Z,4.90
2019-05-05T17:46:33.728Z,4.60
2019-05-05T17:47:34.321Z,4.90
2019-05-05T17:48:33.461Z,4.90
2019-05-05T17:49:33.431Z,4.60
2019-05-05T17:50:33.405Z,4.80
2019-05-05T17:51:33.373Z,4.60
2019-05-05T17:52:34.367Z,4.50
2019-05-05T17:53:34.428Z,4.10
2019-05-05T17:54:33.889Z,4.30
2019-05-05T17:55:33.930Z,5.10
2019-05-05T17:56:33.668Z,4.30
2019-05-05T17:57:34.501Z,4.10
2019-05-05T17:58:34.038Z,4.60
2019-05-05T17:59:33.891Z,4.50
2019-05-05T18:00:34.276Z,4.60
2019-05-05T18:01:33.688Z,4.50
2019-05-05T18:02:34.337Z,4.20
2019-05-05T18:03:34.090Z,4.90
2019-05-05T18:04:33.777Z,4.30
2019-05-05T18:05:34.145Z,5.10
2019-05-05T18:06:34.375Z,4.70
2019-05-05T18:07:34.589Z,4.40
2019-05-05T18:08:33.772Z,5.10
2019-05-05T18:09:34.444Z,4.50
2019-05-05T18:10:34.429Z,4.80
2019-05-05T18:11:35.052Z,4.80
2019-05-05T18:12:33.750Z,5.00
2019-05-05T18:13:32.738Z,5.30
2019-05-05T18:14:33.530Z,4.80
2019-05-05T18:15:34.113Z,5.40
2019-05-05T18:16:33.919Z,5.40
2019-05-05T18:17:33.970Z,4.50
2019-05-05T18:18:32.592Z,5.00
2019-05-05T18:19:33.981Z,4.90
2019-05-05T18:20:34.120Z,5.30
2019-05-05T18:21:34.647Z,4.90
2019-05-05T18:22:34.256Z,5.60
2019-05-05T18:23:34.165Z,5.00
2019-05-05T18:24:33.702Z,4.90
2019-05-05T18:25:34.209Z,4.60
2019-05-05T18:26:34.111Z,4.50
2019-05-05T18:27:34.307Z,4.40
2019-05-05T18:28:34.044Z,5.30
2019-05-05T18:29:34.015Z,5.40
2019-05-05T18:30:33.472Z,4.70
2019-05-05T18:31:33.656Z,4.80
2019-05-05T18:32:33.879Z,5.10
2019-05-05T18:33:33.853Z,5.00
2019-05-05T18:34:32.127Z,5.00
2019-05-05T18:35:33.860Z,5.00
2019-05-05T18:36:32.066Z,5.00
2019-05-05T18:37:33.930Z,4.80
2019-05-05T18:38:33.649Z,5.00
2019-05-05T18:39:34.136Z,5.40
2019-05-05T18:40:33.646Z,5.00
2019-05-05T18:41:31.921Z,5.40
2019-05-05T18:42:33.861Z,5.70
2019-05-05T18:43:31.861Z,5.40
2019-05-05T18:44:33.466Z,5.30
2019-05-05T18:45:31.804Z,5.70
2019-05-05T18:46:33.635Z,5.10
2019-05-05T18:47:33.916Z,4.70
2019-05-05T18:48:31.716Z,5.30
2019-05-05T18:49:33.657Z,4.80
2019-05-05T18:50:31.656Z,5.40
2019-05-05T18:51:31.628Z,4.90
2019-05-05T18:52:31.598Z,5.00
2019-05-05T18:53:31.570Z,5.10
2019-05-05T18:54:31.540Z,5.40
2019-05-05T18:55:33.777Z,5.60
2019-05-05T18:56:31.480Z,5.30
2019-05-05T18:57:31.452Z,4.80
2019-05-05T18:58:31.423Z,5.20
2019-05-05T18:59:33.451Z,4.20
2019-05-05T19:00:31.363Z,5.50
2019-05-05T19:01:31.541Z,5.10
2019-05-05T19:02:31.303Z,5.00
2019-05-05T19:03:31.275Z,5.30
2019-05-05T19:04:31.244Z,5.20
2019-05-05T19:05:31.214Z,5.20
2019-05-05T19:06:31.185Z,5.30
2019-05-05T19:07:33.566Z,5.30
2019-05-05T19:08:31.125Z,4.90
2019-05-05T19:09:31.098Z,5.20
2019-05-05T19:10:31.069Z,5.20
2019-05-05T19:11:31.036Z,5.20
2019-05-05T19:12:31.031Z,5.70
2019-05-05T19:13:30.978Z,4.80
2019-05-05T19:14:30.950Z,4.90
2019-05-05T19:15:30.917Z,5.20
2019-05-05T19:16:31.093Z,5.00
2019-05-05T19:17:30.864Z,5.20
2019-05-05T19:18:30.827Z,5.30
2019-05-05T19:19:30.800Z,5.20
2019-05-05T19:20:30.971Z,5.80
2019-05-05T19:21:30.739Z,5.30
2019-05-05T19:22:30.709Z,5.50
2019-05-05T19:23:30.881Z,5.00
2019-05-05T19:24:30.657Z,5.10
2019-05-05T19:25:30.826Z,5.50
2019-05-05T19:26:30.595Z,5.70
2019-05-05T19:27:30.560Z,5.30
2019-05-05T19:28:41.250Z,5.80
2019-05-05T19:29:30.704Z,5.20
2019-05-05T19:30:30.671Z,5.50
2019-05-05T19:31:32.127Z,5.20
2019-05-05T19:32:30.411Z,4.90
2019-05-05T19:33:30.586Z,5.20
2019-05-05T19:34:30.552Z,5.30
2019-05-05T19:35:43.637Z,5.30
2019-05-05T19:36:30.291Z,5.80
2019-05-05T19:37:30.262Z,5.60
2019-05-05T19:38:30.231Z,4.80
2019-05-05T19:39:30.211Z,4.90
2019-05-05T19:40:30.175Z,5.70
2019-05-05T19:41:30.149Z,5.30
2019-05-05T19:42:30.111Z,5.70
2019-05-05T19:43:30.080Z,5.20
2019-05-05T19:44:30.050Z,5.40
2019-05-05T19:45:30.021Z,6.10
2019-05-05T19:46:29.990Z,5.40
2019-05-05T19:47:29.964Z,5.80
2019-05-05T19:48:29.931Z,5.30
2019-05-05T19:49:29.901Z,5.30
2019-05-05T19:50:29.875Z,5.90
2019-05-05T19:51:29.842Z,4.90
2019-05-05T19:52:29.812Z,5.40
2019-05-05T19:53:29.782Z,6.30
2019-05-05T19:54:29.961Z,5.30
2019-05-05T19:55:29.722Z,5.60
2019-05-05T19:56:29.691Z,6.20
2019-05-05T19:57:29.660Z,6.10
2019-05-05T19:58:29.635Z,6.60
2019-05-05T19:59:29.602Z,6.50
2019-05-05T20:00:29.570Z,6.60
2019-05-05T20:01:35.315Z,5.80
2019-05-05T20:02:29.510Z,6.00
2019-05-05T20:03:29.674Z,6.50
2019-05-05T20:04:29.451Z,6.40
2019-05-05T20:05:29.425Z,6.40
2019-05-05T20:06:29.389Z,5.50
2019-05-05T20:07:29.388Z,5.90
2019-05-05T20:08:40.384Z,5.80
2019-05-05T20:09:29.308Z,5.90
2019-05-05T20:10:29.270Z,6.30
2019-05-05T20:11:29.239Z,6.00
2019-05-05T20:12:29.209Z,5.70
2019-05-05T20:13:29.177Z,6.10
2019-05-05T20:14:29.148Z,6.10
2019-05-05T20:15:29.116Z,5.90
2019-05-05T20:16:29.086Z,5.60
2019-05-05T20:17:29.057Z,5.70
2019-05-05T20:18:29.033Z,5.30
2019-05-05T20:19:28.997Z,5.20
2019-05-05T20:20:28.967Z,5.50
2019-05-05T20:21:28.947Z,5.80
2019-05-05T20:22:28.906Z,5.10
2019-05-05T20:23:28.878Z,5.30
2019-05-05T20:24:28.845Z,5.20
2019-05-05T20:25:28.819Z,5.30
2019-05-05T20:26:28.784Z,5.70
2019-05-05T20:27:28.754Z,5.50
2019-05-05T20:28:28.722Z,5.80
2019-05-05T20:29:28.696Z,5.40
2019-05-05T20:30:28.662Z,5.60
2019-05-05T20:31:28.637Z,5.10
2019-05-05T20:32:28.607Z,5.30
2019-05-05T20:33:28.572Z,5.50
2019-05-05T20:34:28.541Z,5.40
2019-05-05T20:35:28.511Z,5.10
2019-05-05T20:36:28.481Z,4.70
2019-05-05T20:37:28.457Z,5.30
2019-05-05T20:38:28.420Z,6.30
2019-05-05T20:39:28.397Z,5.60
2019-05-05T20:40:28.366Z,5.20
2019-05-05T20:41:28.329Z,4.80
2019-05-05T20:42:28.299Z,5.50
2019-05-05T20:43:29.145Z,5.20
2019-05-05T20:44:28.264Z,5.10
2019-05-05T20:45:28.210Z,4.80
2019-05-05T20:46:28.178Z,5.10
2019-05-05T20:47:28.154Z,4.90
2019-05-05T20:48:28.123Z,5.10
2019-05-05T20:49:28.087Z,4.70
2019-05-05T20:50:28.056Z,5.10
2019-05-05T20:51:28.028Z,5.30
2019-05-05T20:52:27.999Z,5.00
2019-05-05T20:53:27.968Z,5.00
2019-05-05T20:54:27.938Z,4.70
2019-05-05T20:55:27.915Z,5.10
2019-05-05T20:56:27.878Z,4.90
2019-05-05T20:57:27.850Z,4.60
2019-05-05T20:58:27.821Z,4.90
2019-05-05T20:59:30.893Z,4.80
2019-05-05T21:00:27.756Z,5.10
2019-05-05T21:01:27.727Z,4.40
2019-05-05T21:02:27.696Z,4.50
2019-05-05T21:03:27.667Z,4.80
2019-05-05T21:04:27.638Z,4.90
2019-05-05T21:05:27.606Z,4.60
2019-05-05T21:06:27.579Z,4.60
2019-05-05T21:07:27.552Z,4.70
2019-05-05T21:08:27.516Z,4.60
2019-05-05T21:09:27.487Z,4.80
2019-05-05T21:10:27.454Z,4.30
2019-05-05T21:11:27.425Z,4.30
2019-05-05T21:12:39.079Z,4.20
2019-05-05T21:13:27.366Z,4.90
2019-05-05T21:14:34.016Z,4.50
2019-05-05T21:15:27.305Z,4.90
2019-05-05T21:16:27.275Z,4.50
2019-05-05T21:17:27.263Z,4.30
2019-05-05T21:18:27.213Z,4.50
2019-05-05T21:19:27.184Z,5.30
2019-05-05T21:20:27.155Z,4.50
2019-05-05T21:21:27.124Z,4.50
2019-05-05T21:22:27.094Z,4.30
2019-05-05T21:23:27.063Z,4.10
2019-05-05T21:24:27.037Z,4.10
2019-05-05T21:25:27.003Z,4.80
2019-05-05T21:26:26.974Z,4.40
2019-05-05T21:27:26.945Z,4.60